createdAt,value
2023-01-12T00:02:09.003Z,62.51
2023-01-12T00:04:36.066Z,63.03
2023-01-12T00:07:05.628Z,63.72
2023-01-12T00:09:32.749Z,62.08
2023-01-12T00:11:59.841Z,63.79
2023-01-12T00:14:27.040Z,62.28
2023-01-12T00:16:54.011Z,61.07
2023-01-12T00:19:21.975Z,60.28
2023-01-12T00:21:59.143Z,59.00
2023-01-12T00:24:37.140Z,60.30
2023-01-12T00:27:09.357Z,62.34
2023-01-12T00:29:36.624Z,59.70
2023-01-12T00:32:04.068Z,60.08
2023-01-12T00:34:31.137Z,58.72
2023-01-12T00:36:59.700Z,58.38
2023-01-12T00:39:26.681Z,59.00
2023-01-12T00:42:12.634Z,59.50
2023-01-12T00:44:58.143Z,58.16
2023-01-12T00:47:25.123Z,58.28
2023-01-12T00:49:53.283Z,59.23
2023-01-12T00:52:30.415Z,59.30
2023-01-12T00:54:58.864Z,58.91
2023-01-12T00:57:25.867Z,59.53
2023-01-12T00:59:55.672Z,59.08
2023-01-12T01:02:23.222Z,58.94
2023-01-12T01:04:50.610Z,59.92
2023-01-12T01:07:18.520Z,60.77
2023-01-12T01:09:45.604Z,59.07
2023-01-12T01:12:12.600Z,58.17
2023-01-12T01:14:39.602Z,58.50
2023-01-12T01:17:06.576Z,57.53
2023-01-12T01:19:33.623Z,59.89
2023-01-12T01:22:00.678Z,59.10
2023-01-12T01:24:27.777Z,62.60
2023-01-12T01:26:54.727Z,60.60
2023-01-12T01:29:21.767Z,58.31
2023-01-12T01:31:48.710Z,57.90
2023-01-12T01:34:15.652Z,58.96
2023-01-12T01:36:42.877Z,62.09
2023-01-12T01:39:09.918Z,64.67
2023-01-12T01:41:36.844Z,64.87
2023-01-12T01:44:06.204Z,63.69
2023-01-12T01:46:44.628Z,64.07
2023-01-12T01:49:25.457Z,63.34
2023-01-12T01:51:54.448Z,60.55
2023-01-12T01:54:21.356Z,59.51
2023-01-12T01:56:48.247Z,59.00
2023-01-12T01:59:17.938Z,58.38
2023-01-12T02:01:45.041Z,62.61
2023-01-12T02:04:12.031Z,62.63
2023-01-12T02:06:39.118Z,59.98
2023-01-12T02:09:18.295Z,60.13
2023-01-12T02:12:04.410Z,59.91
2023-01-12T02:14:52.092Z,61.90
2023-01-12T02:17:38.295Z,60.71
2023-01-12T02:20:17.440Z,60.84
2023-01-12T02:22:50.331Z,60.87
2023-01-12T02:25:37.446Z,64.17
2023-01-12T02:28:22.890Z,62.36
2023-01-12T02:30:58.717Z,65.14
2023-01-12T02:33:31.521Z,63.01
2023-01-12T02:36:02.927Z,63.37
2023-01-12T02:39:07.864Z,62.44
2023-01-12T02:42:22.000Z,62.71
2023-01-12T02:44:58.693Z,63.46
2023-01-12T02:47:30.703Z,63.52
2023-01-12T02:49:59.510Z,64.77
2023-01-12T02:52:26.610Z,65.47
2023-01-12T02:54:53.536Z,63.06
2023-01-12T02:57:20.617Z,64.95
2023-01-12T02:59:49.223Z,65.91
2023-01-12T03:02:18.711Z,64.50
2023-01-12T03:04:45.718Z,66.32
2023-01-12T03:07:15.644Z,64.19
2023-01-12T03:09:47.956Z,63.28
2023-01-12T03:12:18.505Z,62.92
2023-01-12T03:14:48.115Z,63.30
2023-01-12T03:17:18.404Z,64.05
2023-01-12T03:19:45.304Z,63.71
2023-01-12T03:22:13.554Z,63.06
2023-01-12T03:24:42.312Z,61.44
2023-01-12T03:27:13.192Z,61.89
2023-01-12T03:29:43.351Z,65.09
2023-01-12T03:32:10.283Z,64.59
2023-01-12T03:34:37.241Z,65.95
2023-01-12T03:37:12.798Z,64.83
2023-01-12T03:39:45.956Z,62.57
2023-01-12T03:42:18.582Z,61.09
2023-01-12T03:45:16.762Z,63.13
2023-01-12T03:47:44.027Z,62.70
2023-01-12T03:50:16.647Z,64.05
2023-01-12T03:52:43.718Z,65.50
2023-01-12T03:55:12.745Z,64.07
2023-01-12T03:57:39.696Z,63.09
2023-01-12T04:00:08.142Z,64.07
2023-01-12T04:02:39.762Z,64.25
2023-01-12T04:05:07.343Z,61.79
2023-01-12T04:07:34.293Z,63.47
2023-01-12T04:10:01.285Z,63.91
2023-01-12T04:12:28.329Z,62.17
2023-01-12T04:14:55.315Z,60.62
2023-01-12T04:17:27.748Z,61.78
2023-01-12T04:20:01.111Z,62.00
2023-01-12T04:22:43.248Z,62.67
2023-01-12T04:25:28.338Z,60.89
2023-01-12T04:27:59.121Z,64.45
2023-01-12T04:30:27.917Z,61.99
2023-01-12T04:32:55.528Z,62.00
2023-01-12T04:35:22.639Z,60.40
2023-01-12T04:37:49.659Z,60.10
2023-01-12T04:40:17.036Z,60.00
2023-01-12T04:43:07.397Z,60.60
2023-01-12T04:45:36.565Z,60.98
2023-01-12T04:48:05.232Z,63.57
2023-01-12T04:50:32.151Z,63.20
2023-01-12T04:52:59.131Z,62.47
2023-01-12T04:55:26.122Z,64.89
2023-01-12T04:57:53.133Z,63.27
2023-01-12T05:00:20.481Z,65.13
2023-01-12T05:02:47.484Z,62.79
2023-01-12T05:05:14.535Z,60.93
2023-01-12T05:08:01.444Z,60.90
2023-01-12T05:10:30.041Z,61.76
2023-01-12T05:12:57.007Z,60.22
2023-01-12T05:15:23.933Z,60.83
2023-01-12T05:17:51.043Z,58.89
2023-01-12T05:20:18.262Z,57.92
2023-01-12T05:22:45.311Z,57.25
2023-01-12T05:25:12.264Z,59.03
2023-01-12T05:27:39.387Z,58.82
2023-01-12T05:30:07.847Z,61.81
2023-01-12T05:32:38.698Z,62.31
2023-01-12T05:35:06.850Z,63.18
2023-01-12T05:37:34.338Z,61.43
2023-01-12T05:40:01.419Z,60.90
2023-01-12T05:42:47.041Z,62.81
2023-01-12T05:45:14.148Z,63.07
2023-01-12T05:47:41.037Z,61.54
2023-01-12T05:50:08.783Z,61.45
2023-01-12T05:52:35.803Z,61.86
2023-01-12T05:55:02.944Z,60.22
2023-01-12T05:57:30.594Z,62.25
2023-01-12T05:59:57.805Z,60.60
2023-01-12T06:02:24.928Z,59.17
2023-01-12T06:04:51.996Z,62.29
2023-01-12T06:07:19.672Z,61.33
2023-01-12T06:09:46.843Z,60.43
2023-01-12T06:12:32.512Z,60.92
2023-01-12T06:14:59.523Z,60.44
2023-01-12T06:17:26.448Z,60.05
2023-01-12T06:19:53.506Z,62.01
2023-01-12T06:22:20.500Z,60.40
2023-01-12T06:24:49.280Z,61.74
2023-01-12T06:27:16.727Z,60.12
2023-01-12T06:29:43.699Z,62.46
2023-01-12T06:32:10.673Z,61.08
2023-01-12T06:34:37.988Z,61.68
2023-01-12T06:37:05.141Z,59.91
2023-01-12T06:39:32.168Z,59.84
2023-01-12T06:42:17.828Z,58.78
2023-01-12T06:44:44.938Z,59.29
2023-01-12T06:47:12.374Z,59.41
2023-01-12T06:49:39.840Z,58.50
2023-01-12T06:52:07.352Z,57.91
2023-01-12T06:54:34.297Z,57.83
2023-01-12T06:57:01.380Z,58.65
2023-01-12T06:59:28.507Z,59.27
2023-01-12T07:01:55.799Z,57.98
2023-01-12T07:04:23.478Z,60.84
2023-01-12T07:06:53.891Z,62.47
2023-01-12T07:09:21.308Z,58.93
2023-01-12T07:11:48.524Z,59.10
2023-01-12T07:14:15.537Z,59.36
2023-01-12T07:16:42.716Z,57.50
2023-01-12T07:19:09.781Z,57.87
2023-01-12T07:21:37.172Z,59.01
2023-01-12T07:24:04.325Z,58.62
2023-01-12T07:26:31.395Z,61.49
2023-01-12T07:28:58.641Z,59.18
2023-01-12T07:31:25.924Z,60.44
2023-01-12T07:33:56.255Z,59.88
2023-01-12T07:36:23.404Z,57.67
2023-01-12T07:38:50.330Z,58.57
2023-01-12T07:41:36.046Z,56.91
2023-01-12T07:44:09.016Z,58.38
2023-01-12T07:46:36.231Z,58.37
2023-01-12T07:49:03.387Z,57.76
2023-01-12T07:51:31.597Z,58.07
2023-01-12T07:54:00.033Z,58.58
2023-01-12T07:56:27.195Z,57.71
2023-01-12T07:58:54.326Z,58.62
2023-01-12T08:01:21.444Z,56.91
2023-01-12T08:03:48.538Z,55.94
2023-01-12T08:06:15.628Z,57.81
2023-01-12T08:08:42.651Z,57.50
2023-01-12T08:11:10.228Z,55.94
2023-01-12T08:13:37.863Z,58.73
2023-01-12T08:16:19.693Z,57.77
2023-01-12T08:18:53.173Z,57.07
2023-01-12T08:21:22.582Z,56.50
2023-01-12T08:23:51.945Z,58.06
2023-01-12T08:26:23.825Z,57.27
2023-01-12T08:29:20.826Z,55.66
2023-01-12T08:31:47.821Z,57.79
2023-01-12T08:34:14.829Z,58.61
2023-01-12T08:36:44.045Z,60.37
2023-01-12T08:39:11.773Z,60.69
2023-01-12T08:41:40.677Z,62.11
2023-01-12T08:44:11.291Z,59.85
2023-01-12T08:46:45.380Z,60.99
2023-01-12T08:49:16.961Z,60.44
2023-01-12T08:51:44.459Z,59.71
2023-01-12T08:54:12.791Z,59.39
2023-01-12T08:56:39.791Z,61.01
2023-01-12T08:59:06.780Z,60.16
2023-01-12T09:01:34.063Z,60.08
2023-01-12T09:04:01.603Z,59.71
2023-01-12T09:06:30.450Z,60.13
2023-01-12T09:08:58.722Z,57.56
2023-01-12T09:11:26.667Z,56.81
2023-01-12T09:13:53.750Z,58.00
2023-01-12T09:16:20.780Z,57.84
2023-01-12T09:18:48.016Z,58.97
2023-01-12T09:21:16.427Z,61.98
2023-01-12T09:23:43.595Z,62.43
2023-01-12T09:26:14.424Z,61.10
2023-01-12T09:28:41.598Z,61.17
2023-01-12T09:31:17.957Z,60.25
2023-01-12T09:33:45.926Z,61.57
2023-01-12T09:36:24.053Z,60.56
2023-01-12T09:38:51.111Z,60.97
2023-01-12T09:42:05.418Z,59.23
2023-01-12T09:44:52.353Z,59.02
2023-01-12T09:47:25.151Z,59.36
2023-01-12T09:50:17.371Z,58.56
2023-01-12T09:53:20.813Z,59.65
2023-01-12T09:56:03.153Z,58.02
2023-01-12T09:58:51.791Z,56.43
2023-01-12T10:01:28.845Z,55.33
2023-01-12T10:03:56.405Z,55.07
2023-01-12T10:06:23.321Z,53.81
2023-01-12T10:09:03.191Z,53.56
2023-01-12T10:11:36.134Z,55.66
2023-01-12T10:14:24.832Z,54.44
2023-01-12T10:17:00.708Z,53.05
2023-01-12T10:19:39.553Z,54.21
2023-01-12T10:22:39.448Z,55.14
2023-01-12T10:25:26.254Z,54.56
2023-01-12T10:27:54.542Z,54.02
2023-01-12T10:30:30.061Z,53.74
2023-01-12T10:32:57.200Z,54.61
2023-01-12T10:35:25.337Z,53.89
2023-01-12T10:37:54.305Z,55.85
2023-01-12T10:40:29.669Z,54.99
2023-01-12T10:43:31.956Z,54.05
2023-01-12T10:46:06.240Z,54.53
2023-01-12T10:48:33.490Z,55.80
2023-01-12T10:51:05.671Z,53.31
2023-01-12T10:53:44.347Z,53.72
2023-01-12T10:56:18.383Z,51.86
2023-01-12T10:58:50.428Z,52.12
2023-01-12T11:01:17.580Z,50.61
2023-01-12T11:03:44.652Z,51.26
2023-01-12T11:06:28.765Z,53.11
2023-01-12T11:08:55.944Z,51.91
2023-01-12T11:11:25.786Z,54.38
2023-01-12T11:13:58.002Z,52.86
2023-01-12T11:16:33.097Z,52.25
2023-01-12T11:19:18.551Z,50.82
2023-01-12T11:21:57.421Z,52.14
2023-01-12T11:24:37.466Z,51.77
2023-01-12T11:27:22.022Z,52.43
2023-01-12T11:30:21.102Z,54.04
2023-01-12T11:33:00.060Z,53.26
2023-01-12T11:35:40.322Z,53.42
2023-01-12T11:38:16.000Z,53.15
2023-01-12T11:40:43.126Z,52.07
2023-01-12T11:43:50.753Z,51.55
2023-01-12T11:46:36.072Z,50.01
2023-01-12T11:49:18.089Z,50.90
2023-01-12T11:51:45.080Z,54.39
2023-01-12T11:54:16.321Z,52.79
2023-01-12T11:57:09.858Z,53.43
2023-01-12T11:59:53.378Z,53.66
2023-01-12T12:02:34.570Z,53.61
2023-01-12T12:05:06.968Z,53.99
2023-01-12T12:07:58.203Z,53.87
2023-01-12T12:10:28.579Z,54.72
2023-01-12T12:13:07.871Z,53.01
2023-01-12T12:15:43.397Z,53.77
2023-01-12T12:18:22.346Z,51.95
2023-01-12T12:21:04.785Z,52.23
2023-01-12T12:23:38.354Z,51.07
2023-01-12T12:26:35.983Z,51.16
2023-01-12T12:29:10.147Z,52.15
2023-01-12T12:31:43.009Z,51.83
2023-01-12T12:34:25.103Z,52.92
2023-01-12T12:37:11.675Z,51.83
2023-01-12T12:39:44.616Z,51.39
2023-01-12T12:42:45.209Z,52.51
2023-01-12T12:45:33.064Z,53.62
2023-01-12T12:48:20.746Z,52.50
2023-01-12T12:50:56.680Z,51.72
2023-01-12T12:53:28.086Z,54.07
2023-01-12T12:55:57.823Z,53.62
2023-01-12T12:58:27.268Z,52.81
2023-01-12T13:00:54.979Z,52.99
2023-01-12T13:03:39.938Z,52.13
2023-01-12T13:06:18.986Z,53.83
2023-01-12T13:08:46.471Z,52.07
2023-01-12T13:11:13.583Z,52.83
2023-01-12T13:13:58.103Z,52.92
2023-01-12T13:16:29.601Z,51.96
2023-01-12T13:18:56.448Z,53.29
2023-01-12T13:21:26.644Z,53.06
2023-01-12T13:23:54.546Z,54.41
2023-01-12T13:26:35.082Z,53.94
2023-01-12T13:29:27.066Z,54.40
2023-01-12T13:31:56.637Z,52.54
2023-01-12T13:34:42.213Z,53.32
2023-01-12T13:37:29.334Z,52.61
2023-01-12T13:40:09.730Z,54.03
2023-01-12T13:42:55.370Z,55.18
2023-01-12T13:45:23.380Z,53.80
2023-01-12T13:47:51.194Z,53.12
2023-01-12T13:50:20.536Z,54.75
2023-01-12T13:52:57.303Z,53.44
2023-01-12T13:55:29.445Z,53.45
2023-01-12T13:58:00.064Z,52.14
2023-01-12T14:00:28.199Z,54.76
2023-01-12T14:02:55.644Z,52.74
2023-01-12T14:05:41.405Z,54.81
2023-01-12T14:08:11.073Z,53.99
2023-01-12T14:10:39.463Z,53.71
2023-01-12T14:13:15.394Z,52.41
2023-01-12T14:16:01.274Z,51.46
2023-01-12T14:18:41.887Z,50.72
2023-01-12T14:21:22.159Z,49.88
2023-01-12T14:23:49.126Z,49.39
2023-01-12T14:26:18.334Z,50.03
2023-01-12T14:28:46.822Z,49.61
2023-01-12T14:31:22.219Z,50.64
2023-01-12T14:33:51.313Z,52.44
2023-01-12T14:36:21.922Z,53.37
2023-01-12T14:38:48.923Z,53.38
2023-01-12T14:41:46.710Z,53.21
2023-01-12T14:44:42.894Z,52.59
2023-01-12T14:47:10.013Z,51.94
2023-01-12T14:49:38.175Z,53.75
2023-01-12T14:52:17.172Z,52.53
2023-01-12T14:54:44.155Z,53.18
2023-01-12T14:57:36.357Z,51.89
2023-01-12T15:00:04.408Z,51.26
2023-01-12T15:02:39.212Z,51.19
2023-01-12T15:05:16.937Z,49.96
2023-01-12T15:08:16.519Z,53.15
2023-01-12T15:10:44.310Z,52.39
2023-01-12T15:13:32.981Z,51.21
2023-01-12T15:16:18.546Z,51.35
2023-01-12T15:19:04.269Z,51.20
2023-01-12T15:21:50.423Z,50.37
2023-01-12T15:24:49.425Z,49.42
2023-01-12T15:27:20.448Z,51.38
2023-01-12T15:29:47.448Z,51.56
2023-01-12T15:32:19.446Z,48.56
2023-01-12T15:34:47.920Z,51.53
2023-01-12T15:37:15.639Z,52.22
2023-01-12T15:39:42.694Z,51.94
2023-01-12T15:42:16.867Z,49.51
2023-01-12T15:44:44.432Z,52.95
2023-01-12T15:47:12.848Z,49.87
2023-01-12T15:49:44.306Z,50.11
2023-01-12T15:52:24.338Z,49.94
2023-01-12T15:54:51.399Z,49.85
2023-01-12T15:57:18.633Z,53.17
2023-01-12T15:59:45.635Z,52.42
2023-01-12T16:02:33.641Z,51.82
2023-01-12T16:05:01.669Z,50.87
2023-01-12T16:07:29.008Z,51.59
2023-01-12T16:09:56.110Z,51.14
2023-01-12T16:12:23.327Z,51.89
2023-01-12T16:14:50.500Z,52.00
2023-01-12T16:17:17.788Z,52.53
2023-01-12T16:19:45.699Z,52.01
2023-01-12T16:22:15.508Z,50.72
2023-01-12T16:24:44.018Z,52.44
2023-01-12T16:27:11.194Z,52.92
2023-01-12T16:29:38.393Z,51.92
2023-01-12T16:32:05.715Z,52.46
2023-01-12T16:34:33.282Z,50.84
2023-01-12T16:37:00.909Z,52.32
2023-01-12T16:39:28.168Z,51.34
2023-01-12T16:42:00.465Z,52.95
2023-01-12T16:44:27.855Z,53.05
2023-01-12T16:46:54.799Z,51.51
2023-01-12T16:49:21.843Z,51.84
2023-01-12T16:51:48.859Z,51.12
2023-01-12T16:54:15.835Z,51.48
2023-01-12T16:56:42.949Z,50.85
2023-01-12T16:59:10.161Z,52.58
2023-01-12T17:01:37.652Z,50.96
2023-01-12T17:04:04.999Z,51.83
2023-01-12T17:06:32.320Z,52.07
2023-01-12T17:09:02.980Z,51.18
2023-01-12T17:11:30.929Z,50.52
2023-01-12T17:13:58.324Z,52.58
2023-01-12T17:16:26.575Z,50.92
2023-01-12T17:18:54.263Z,50.97
2023-01-12T17:21:21.497Z,51.35
2023-01-12T17:23:48.517Z,50.38
2023-01-12T17:26:20.008Z,50.28
2023-01-12T17:28:47.471Z,49.54
2023-01-12T17:31:16.582Z,49.14
2023-01-12T17:33:43.643Z,50.04
2023-01-12T17:36:11.625Z,51.35
2023-01-12T17:38:39.768Z,51.15
2023-01-12T17:41:08.616Z,49.65
2023-01-12T17:43:37.226Z,48.81
2023-01-12T17:46:04.629Z,49.41
2023-01-12T17:48:31.611Z,50.41
2023-01-12T17:50:58.500Z,52.54
2023-01-12T17:53:25.503Z,52.93
2023-01-12T17:55:53.355Z,52.84
2023-01-12T17:58:20.439Z,54.68
2023-01-12T18:00:47.380Z,54.01
2023-01-12T18:03:14.418Z,56.50
2023-01-12T18:05:44.571Z,55.19
2023-01-12T18:08:12.414Z,52.76
2023-01-12T18:10:39.335Z,52.99
2023-01-12T18:13:06.330Z,52.88
2023-01-12T18:15:33.410Z,52.10
2023-01-12T18:18:00.376Z,52.70
2023-01-12T18:20:27.746Z,55.65
2023-01-12T18:22:55.317Z,56.51
2023-01-12T18:25:22.241Z,56.53
2023-01-12T18:27:49.281Z,57.92
2023-01-12T18:30:16.624Z,58.84
2023-01-12T18:32:43.591Z,56.69
2023-01-12T18:35:10.685Z,58.55
2023-01-12T18:37:37.683Z,58.00
2023-01-12T18:40:05.015Z,58.63
2023-01-12T18:42:50.025Z,58.17
2023-01-12T18:45:20.869Z,59.25
2023-01-12T18:48:07.344Z,59.10
2023-01-12T18:50:52.764Z,60.44
2023-01-12T18:53:24.475Z,58.09
2023-01-12T18:55:55.167Z,59.58
2023-01-12T18:58:28.935Z,58.69
2023-01-12T19:00:57.741Z,58.89
2023-01-12T19:03:24.752Z,58.21
2023-01-12T19:06:10.216Z,59.83
2023-01-12T19:08:56.296Z,60.06
2023-01-12T19:11:23.329Z,60.31
2023-01-12T19:14:08.731Z,58.28
2023-01-12T19:16:54.289Z,57.54
2023-01-12T19:19:26.301Z,59.07
2023-01-12T19:22:12.318Z,59.74
2023-01-12T19:24:58.229Z,57.70
2023-01-12T19:27:43.793Z,57.08
2023-01-12T19:30:11.407Z,56.93
2023-01-12T19:32:38.395Z,57.05
2023-01-12T19:35:11.201Z,57.31
2023-01-12T19:37:39.634Z,56.94
2023-01-12T19:40:28.273Z,58.49
2023-01-12T19:43:30.728Z,58.34
2023-01-12T19:45:59.208Z,57.74
2023-01-12T19:48:26.826Z,59.09
2023-01-12T19:50:53.911Z,57.32
2023-01-12T19:53:26.056Z,58.43
2023-01-12T19:55:53.064Z,58.74
2023-01-12T19:58:22.120Z,58.61
2023-01-12T20:00:49.566Z,55.71
2023-01-12T20:03:21.275Z,54.74
2023-01-12T20:05:50.956Z,56.47
2023-01-12T20:08:22.537Z,56.54
2023-01-12T20:10:54.241Z,57.18
2023-01-12T20:13:21.186Z,57.56
2023-01-12T20:15:50.377Z,57.58
2023-01-12T20:18:18.751Z,55.60
2023-01-12T20:20:45.918Z,54.90
2023-01-12T20:23:13.421Z,56.24
2023-01-12T20:25:40.827Z,57.71
2023-01-12T20:28:07.771Z,56.71
2023-01-12T20:30:38.841Z,58.26
2023-01-12T20:33:06.772Z,56.81
2023-01-12T20:35:35.135Z,57.33
2023-01-12T20:38:03.210Z,54.32
2023-01-12T20:40:30.253Z,53.31
2023-01-12T20:42:57.192Z,52.34
2023-01-12T20:45:24.292Z,52.33
2023-01-12T20:47:51.282Z,52.02
2023-01-12T20:50:19.110Z,51.79
2023-01-12T20:52:48.203Z,51.24
2023-01-12T20:55:15.637Z,54.52
2023-01-12T20:57:42.593Z,53.30
2023-01-12T21:00:10.308Z,52.23
2023-01-12T21:02:37.347Z,54.69
2023-01-12T21:05:04.664Z,52.81
2023-01-12T21:07:31.681Z,55.25
2023-01-12T21:09:58.792Z,55.13
2023-01-12T21:12:27.549Z,56.59
2023-01-12T21:14:55.045Z,56.41
2023-01-12T21:17:22.207Z,54.13
2023-01-12T21:19:49.247Z,53.11
2023-01-12T21:22:16.276Z,53.16
2023-01-12T21:24:43.332Z,51.81
2023-01-12T21:27:10.411Z,54.23
2023-01-12T21:29:37.314Z,54.81
2023-01-12T21:32:04.454Z,53.23
2023-01-12T21:34:31.441Z,53.58
2023-01-12T21:36:58.334Z,55.26
2023-01-12T21:39:25.339Z,52.12
2023-01-12T21:42:11.067Z,54.88
2023-01-12T21:44:38.004Z,52.86
2023-01-12T21:47:04.957Z,55.51
2023-01-12T21:49:31.915Z,55.57
2023-01-12T21:51:58.993Z,52.06
2023-01-12T21:54:26.105Z,53.52
2023-01-12T21:56:53.213Z,54.33
2023-01-12T21:59:20.247Z,53.47
2023-01-12T22:01:47.311Z,55.11
2023-01-12T22:04:14.332Z,55.77
2023-01-12T22:06:41.392Z,54.40
2023-01-12T22:09:08.694Z,54.74
2023-01-12T22:11:35.892Z,55.54
2023-01-12T22:14:02.976Z,58.32
2023-01-12T22:16:30.097Z,57.27
2023-01-12T22:18:57.176Z,55.93
2023-01-12T22:21:24.669Z,56.99
2023-01-12T22:23:51.747Z,57.43
2023-01-12T22:26:19.076Z,57.52
2023-01-12T22:28:49.358Z,55.83
2023-01-12T22:31:18.358Z,56.29
2023-01-12T22:33:46.272Z,57.71
2023-01-12T22:36:13.254Z,59.30
2023-01-12T22:38:40.276Z,56.97
2023-01-12T22:41:07.720Z,57.98
2023-01-12T22:43:40.492Z,57.15
2023-01-12T22:46:18.475Z,57.85
2023-01-12T22:48:48.710Z,59.01
2023-01-12T22:51:16.363Z,57.13
2023-01-12T22:53:43.740Z,54.24
2023-01-12T22:56:11.396Z,56.11
2023-01-12T22:58:38.921Z,57.45
2023-01-12T23:01:08.153Z,57.23
2023-01-12T23:03:36.159Z,58.36
2023-01-12T23:06:03.623Z,55.34
2023-01-12T23:08:30.726Z,56.97
2023-01-12T23:11:14.502Z,56.54
2023-01-12T23:13:42.828Z,55.34
2023-01-12T23:16:10.706Z,57.14
2023-01-12T23:18:38.902Z,55.42
2023-01-12T23:21:19.343Z,54.85
2023-01-12T23:23:51.093Z,56.26
2023-01-12T23:26:20.431Z,55.48
2023-01-12T23:28:49.389Z,57.06
2023-01-12T23:31:24.833Z,58.68
2023-01-12T23:33:52.180Z,57.09
2023-01-12T23:36:21.883Z,57.10
2023-01-12T23:38:55.950Z,56.36
2023-01-12T23:41:24.793Z,56.21
2023-01-12T23:43:52.361Z,56.03
2023-01-12T23:46:23.577Z,54.61
2023-01-12T23:48:50.760Z,54.55
2023-01-12T23:51:17.887Z,56.99
2023-01-12T23:53:47.281Z,55.90
2023-01-12T23:56:15.875Z,53.78
2023-01-12T23:58:43.546Z,54.67
